createdAt,value
2023-02-23T00:01:27.742Z,96320.75
2023-02-23T00:03:56.628Z,96322.53
2023-02-23T00:06:25.723Z,96321.16
2023-02-23T00:08:54.232Z,96318.63
2023-02-23T00:11:22.480Z,96317.50
2023-02-23T00:13:52.031Z,96315.06
2023-02-23T00:16:21.578Z,96312.63
2023-02-23T00:18:50.849Z,96309.22
2023-02-23T00:21:20.742Z,96319.00
2023-02-23T00:23:51.029Z,96313.72
2023-02-23T00:26:20.760Z,96316.72
2023-02-23T00:28:51.818Z,96312.03
2023-02-23T00:31:23.582Z,96308.81
2023-02-23T00:33:51.591Z,96308.53
2023-02-23T00:36:19.079Z,96310.72
2023-02-23T00:38:46.563Z,96308.28
2023-02-23T00:41:17.737Z,96313.81
2023-02-23T00:43:47.528Z,96302.63
2023-02-23T00:46:17.835Z,96314.81
2023-02-23T00:48:46.125Z,96305.03
2023-02-23T00:51:14.517Z,96306.72
2023-02-23T00:53:42.687Z,96315.25
2023-02-23T00:56:12.031Z,96311.28
2023-02-23T00:58:39.714Z,96307.25
2023-02-23T01:01:07.777Z,96311.66
2023-02-23T01:03:37.680Z,96312.22
2023-02-23T01:06:07.912Z,96311.13
2023-02-23T01:08:36.523Z,96316.25
2023-02-23T01:11:09.274Z,96315.81
2023-02-23T01:13:37.188Z,96315.63
2023-02-23T01:16:07.031Z,96317.06
2023-02-23T01:18:38.054Z,96309.88
2023-02-23T01:21:07.070Z,96298.66
2023-02-23T01:23:34.606Z,96298.22
2023-02-23T01:26:02.138Z,96301.81
2023-02-23T01:28:29.639Z,96307.03
2023-02-23T01:30:57.308Z,96304.59
2023-02-23T01:33:25.655Z,96295.72
2023-02-23T01:36:01.430Z,96299.66
2023-02-23T01:38:29.111Z,96293.22
2023-02-23T01:40:56.647Z,96291.94
2023-02-23T01:43:26.488Z,96292.31
2023-02-23T01:45:56.170Z,96296.19
2023-02-23T01:48:27.750Z,96293.38
2023-02-23T01:50:58.274Z,96299.13
2023-02-23T01:53:29.940Z,96295.25
2023-02-23T01:56:01.250Z,96293.03
2023-02-23T01:58:30.195Z,96290.75
2023-02-23T02:01:02.385Z,96289.53
2023-02-23T02:03:34.286Z,96293.47
2023-02-23T02:06:04.115Z,96287.63
2023-02-23T02:08:34.811Z,96292.84
2023-02-23T02:11:09.317Z,96287.63
2023-02-23T02:13:37.794Z,96286.00
2023-02-23T02:16:22.519Z,96278.56
2023-02-23T02:19:06.028Z,96284.41
2023-02-23T02:22:00.607Z,96282.06
2023-02-23T02:24:47.757Z,96282.69
2023-02-23T02:27:28.987Z,96274.09
2023-02-23T02:30:35.324Z,96280.47
2023-02-23T02:33:37.953Z,96269.44
2023-02-23T02:36:27.942Z,96270.25
2023-02-23T02:39:08.049Z,96272.47
2023-02-23T02:41:42.299Z,96268.53
2023-02-23T02:44:16.597Z,96275.44
2023-02-23T02:46:48.943Z,96263.88
2023-02-23T02:49:27.552Z,96262.25
2023-02-23T02:52:02.074Z,96267.81
2023-02-23T02:54:36.950Z,96268.28
2023-02-23T02:57:06.731Z,96274.28
2023-02-23T03:00:01.697Z,96276.72
2023-02-23T03:02:48.053Z,96271.50
2023-02-23T03:05:33.982Z,96273.47
2023-02-23T03:08:29.358Z,96273.81
2023-02-23T03:11:21.570Z,96270.97
2023-02-23T03:14:16.180Z,96266.13
2023-02-23T03:17:10.182Z,96272.22
2023-02-23T03:20:00.710Z,96274.72
2023-02-23T03:22:50.665Z,96265.94
2023-02-23T03:25:45.042Z,96272.66
2023-02-23T03:28:36.691Z,96277.13
2023-02-23T03:31:30.921Z,96278.13
2023-02-23T03:34:22.033Z,96283.34
2023-02-23T03:36:49.359Z,96278.13
2023-02-23T03:39:41.753Z,96281.09
2023-02-23T03:42:31.455Z,96277.03
2023-02-23T03:45:22.405Z,96278.84
2023-02-23T03:48:09.756Z,96277.25
2023-02-23T03:51:00.234Z,96273.63
2023-02-23T03:53:51.775Z,96277.25
2023-02-23T03:56:39.696Z,96280.19
2023-02-23T03:59:26.410Z,96284.41
2023-02-23T04:02:14.634Z,96280.63
2023-02-23T04:05:01.509Z,96275.28
2023-02-23T04:07:47.637Z,96278.13
2023-02-23T04:10:33.002Z,96271.22
2023-02-23T04:13:14.792Z,96277.97
2023-02-23T04:15:47.754Z,96275.00
2023-02-23T04:18:19.302Z,96280.03
2023-02-23T04:20:46.947Z,96275.97
2023-02-23T04:23:14.502Z,96271.13
2023-02-23T04:25:42.079Z,96278.31
2023-02-23T04:28:09.558Z,96284.69
2023-02-23T04:30:37.178Z,96281.44
2023-02-23T04:33:05.233Z,96277.41
2023-02-23T04:35:34.430Z,96280.19
2023-02-23T04:38:02.203Z,96280.38
2023-02-23T04:40:30.072Z,96278.59
2023-02-23T04:42:58.148Z,96282.00
2023-02-23T04:45:26.881Z,96281.34
2023-02-23T04:47:54.833Z,96284.13
2023-02-23T04:50:22.777Z,96279.22
2023-02-23T04:52:53.306Z,96279.38
2023-02-23T04:55:22.729Z,96283.34
2023-02-23T04:57:50.485Z,96284.03
2023-02-23T05:00:19.487Z,96286.00
2023-02-23T05:02:48.104Z,96287.97
2023-02-23T05:05:17.229Z,96284.75
2023-02-23T05:07:44.869Z,96283.31
2023-02-23T05:10:14.293Z,96286.28
2023-02-23T05:12:41.874Z,96282.06
2023-02-23T05:15:10.995Z,96289.84
2023-02-23T05:17:40.376Z,96274.25
2023-02-23T05:20:08.723Z,96283.53
2023-02-23T05:22:36.232Z,96276.50
2023-02-23T05:25:04.962Z,96277.31
2023-02-23T05:27:34.388Z,96275.50
2023-02-23T05:30:02.483Z,96277.16
2023-02-23T05:32:30.020Z,96275.34
2023-02-23T05:34:57.671Z,96277.16
2023-02-23T05:37:25.488Z,96276.31
2023-02-23T05:39:53.081Z,96275.50
2023-02-23T05:42:21.044Z,96280.72
2023-02-23T05:44:50.109Z,96277.78
2023-02-23T05:47:17.979Z,96283.59
2023-02-23T05:49:46.185Z,96284.03
2023-02-23T05:52:13.772Z,96282.06
2023-02-23T05:54:41.258Z,96283.25
2023-02-23T05:57:09.062Z,96282.59
2023-02-23T05:59:36.691Z,96285.31
2023-02-23T06:02:06.097Z,96286.56
2023-02-23T06:04:34.304Z,96286.56
2023-02-23T06:07:02.039Z,96288.16
2023-02-23T06:09:29.621Z,96286.19
2023-02-23T06:11:59.533Z,96289.44
2023-02-23T06:14:27.114Z,96294.28
2023-02-23T06:16:54.879Z,96284.78
2023-02-23T06:19:23.837Z,96294.47
2023-02-23T06:21:53.013Z,96296.53
2023-02-23T06:24:34.465Z,96298.22
2023-02-23T06:27:02.123Z,96297.69
2023-02-23T06:29:29.664Z,96299.47
2023-02-23T06:31:59.760Z,96298.84
2023-02-23T06:34:28.335Z,96305.69
2023-02-23T06:36:56.016Z,96299.47
2023-02-23T06:39:23.750Z,96306.66
2023-02-23T06:41:53.171Z,96314.81
2023-02-23T06:44:20.741Z,96318.59
2023-02-23T06:46:48.339Z,96311.97
2023-02-23T06:49:16.725Z,96307.91
2023-02-23T06:51:44.344Z,96321.91
2023-02-23T06:54:11.986Z,96322.09
2023-02-23T06:56:39.494Z,96320.50
2023-02-23T06:59:08.361Z,96322.09
2023-02-23T07:01:38.333Z,96329.25
2023-02-23T07:04:06.293Z,96331.25
2023-02-23T07:06:35.112Z,96329.63
2023-02-23T07:09:02.690Z,96326.88
2023-02-23T07:11:30.254Z,96333.75
2023-02-23T07:13:58.677Z,96332.69
2023-02-23T07:16:28.658Z,96338.59
2023-02-23T07:18:56.288Z,96340.41
2023-02-23T07:21:24.200Z,96343.38
2023-02-23T07:23:51.687Z,96341.41
2023-02-23T07:26:19.514Z,96338.44
2023-02-23T07:28:47.541Z,96337.25
2023-02-23T07:31:15.335Z,96340.94
2023-02-23T07:33:44.271Z,96342.81
2023-02-23T07:36:12.750Z,96335.00
2023-02-23T07:38:40.367Z,96341.81
2023-02-23T07:41:08.016Z,96337.88
2023-02-23T07:43:35.736Z,96339.13
2023-02-23T07:46:03.665Z,96340.56
2023-02-23T07:48:31.213Z,96345.84
2023-02-23T07:51:00.113Z,96348.53
2023-02-23T07:53:28.219Z,96345.56
2023-02-23T07:55:59.576Z,96352.38
2023-02-23T07:58:27.106Z,96349.59
2023-02-23T08:00:55.577Z,96352.56
2023-02-23T08:03:23.607Z,96352.31
2023-02-23T08:05:51.145Z,96350.06
2023-02-23T08:08:20.567Z,96348.44
2023-02-23T08:10:49.933Z,96347.81
2023-02-23T08:13:18.035Z,96347.19
2023-02-23T08:15:45.602Z,96350.97
2023-02-23T08:18:13.197Z,96351.16
2023-02-23T08:20:40.795Z,96351.16
2023-02-23T08:23:08.457Z,96352.41
2023-02-23T08:25:37.864Z,96356.09
2023-02-23T08:28:06.845Z,96362.72
2023-02-23T08:30:35.215Z,96360.56
2023-02-23T08:33:03.100Z,96358.59
2023-02-23T08:35:31.039Z,96361.78
2023-02-23T08:37:58.959Z,96365.03
2023-02-23T08:40:28.001Z,96365.47
2023-02-23T08:42:56.997Z,96362.31
2023-02-23T08:45:24.491Z,96360.78
2023-02-23T08:47:52.143Z,96358.81
2023-02-23T08:50:19.707Z,96358.44
2023-02-23T08:52:47.273Z,96353.28
2023-02-23T08:55:16.552Z,96354.97
2023-02-23T08:57:44.238Z,96361.72
2023-02-23T09:00:16.652Z,96361.16
2023-02-23T09:02:47.523Z,96357.59
2023-02-23T09:05:15.599Z,96369.56
2023-02-23T09:07:44.972Z,96364.00
2023-02-23T09:10:14.029Z,96358.22
2023-02-23T09:12:41.665Z,96364.22
2023-02-23T09:15:10.383Z,96373.06
2023-02-23T09:17:39.282Z,96368.91
2023-02-23T09:20:07.765Z,96368.34
2023-02-23T09:22:36.959Z,96372.19
2023-02-23T09:25:05.646Z,96368.44
2023-02-23T09:27:33.171Z,96366.88
2023-02-23T09:30:00.703Z,96376.75
2023-02-23T09:32:28.315Z,96377.78
2023-02-23T09:34:57.214Z,96381.47
2023-02-23T09:37:25.133Z,96375.66
2023-02-23T09:39:52.640Z,96378.69
2023-02-23T09:42:36.553Z,96373.28
2023-02-23T09:45:13.286Z,96379.50
2023-02-23T09:47:51.588Z,96378.50
2023-02-23T09:50:24.578Z,96377.88
2023-02-23T09:52:57.520Z,96377.31
2023-02-23T09:55:26.743Z,96381.78
2023-02-23T09:57:55.209Z,96389.66
2023-02-23T10:00:27.742Z,96387.66
2023-02-23T10:03:17.849Z,96383.63
2023-02-23T10:05:49.363Z,96380.41
2023-02-23T10:08:27.864Z,96387.47
2023-02-23T10:11:03.449Z,96380.88
2023-02-23T10:13:40.449Z,96382.88
2023-02-23T10:16:16.604Z,96383.03
2023-02-23T10:18:51.885Z,96391.69
2023-02-23T10:21:30.432Z,96392.13
2023-02-23T10:24:01.922Z,96392.91
2023-02-23T10:26:36.573Z,96395.72
2023-02-23T10:29:06.458Z,96391.50
2023-02-23T10:31:42.631Z,96391.50
2023-02-23T10:34:15.427Z,96387.25
2023-02-23T10:36:46.673Z,96396.09
2023-02-23T10:39:14.842Z,96391.91
2023-02-23T10:41:43.324Z,96387.66
2023-02-23T10:44:20.195Z,96385.63
2023-02-23T10:46:55.280Z,96389.59
2023-02-23T10:49:30.303Z,96388.00
2023-02-23T10:52:02.937Z,96394.41
2023-02-23T10:54:39.443Z,96391.78
2023-02-23T10:57:09.009Z,96392.41
2023-02-23T10:59:36.787Z,96387.03
2023-02-23T11:02:23.586Z,96389.28
2023-02-23T11:04:53.933Z,96389.47
2023-02-23T11:07:29.521Z,96394.09
2023-02-23T11:09:59.828Z,96390.34
2023-02-23T11:12:29.611Z,96385.53
2023-02-23T11:14:58.562Z,96389.56
2023-02-23T11:17:30.233Z,96383.78
2023-02-23T11:20:03.677Z,96388.59
2023-02-23T11:22:36.637Z,96381.81
2023-02-23T11:25:16.857Z,96373.38
2023-02-23T11:27:51.447Z,96376.22
2023-02-23T11:30:22.140Z,96373.66
2023-02-23T11:32:52.815Z,96368.66
2023-02-23T11:35:30.607Z,96365.88
2023-02-23T11:37:59.589Z,96365.91
2023-02-23T11:40:29.235Z,96357.47
2023-02-23T11:42:58.669Z,96362.72
2023-02-23T11:45:27.934Z,96353.84
2023-02-23T11:47:59.365Z,96355.88
2023-02-23T11:50:29.756Z,96351.06
2023-02-23T11:53:03.038Z,96357.50
2023-02-23T11:55:32.433Z,96363.97
2023-02-23T11:58:10.237Z,96352.09
2023-02-23T12:00:38.076Z,96350.69
2023-02-23T12:03:06.652Z,96347.47
2023-02-23T12:05:34.716Z,96342.25
2023-02-23T12:08:07.719Z,96344.66
2023-02-23T12:10:40.165Z,96344.25
2023-02-23T12:13:26.318Z,96339.81
2023-02-23T12:15:59.792Z,96340.03
2023-02-23T12:18:39.040Z,96336.22
2023-02-23T12:21:18.581Z,96341.84
2023-02-23T12:23:52.561Z,96339.63
2023-02-23T12:26:24.168Z,96330.97
2023-02-23T12:28:59.475Z,96332.97
2023-02-23T12:31:31.110Z,96330.97
2023-02-23T12:34:02.204Z,96328.34
2023-02-23T12:36:38.445Z,96326.53
2023-02-23T12:39:17.747Z,96322.69
2023-02-23T12:41:52.222Z,96318.06
2023-02-23T12:44:32.510Z,96315.41
2023-02-23T12:47:05.867Z,96310.56
2023-02-23T12:49:38.643Z,96310.16
2023-02-23T12:52:14.757Z,96314.00
2023-02-23T12:54:46.910Z,96318.44
2023-02-23T12:57:23.726Z,96308.75
2023-02-23T13:00:36.171Z,96299.28
2023-02-23T13:03:29.205Z,96299.66
2023-02-23T13:06:03.209Z,96303.91
2023-02-23T13:08:42.683Z,96300.69
2023-02-23T13:11:22.437Z,96298.66
2023-02-23T13:13:55.741Z,96297.03
2023-02-23T13:16:29.383Z,96295.44
2023-02-23T13:19:06.593Z,96300.28
2023-02-23T13:21:37.992Z,96301.50
2023-02-23T13:24:10.905Z,96299.91
2023-02-23T13:26:46.674Z,96299.09
2023-02-23T13:29:27.886Z,96293.44
2023-02-23T13:31:55.921Z,96297.06
2023-02-23T13:34:28.675Z,96296.25
2023-02-23T13:36:56.630Z,96303.72
2023-02-23T13:39:47.644Z,96297.06
2023-02-23T13:42:31.147Z,96287.78
2023-02-23T13:45:12.417Z,96292.44
2023-02-23T13:47:46.387Z,96293.47
2023-02-23T13:50:21.711Z,96288.41
2023-02-23T13:52:54.054Z,96285.78
2023-02-23T13:55:48.698Z,96280.56
2023-02-23T13:58:23.910Z,96279.97
2023-02-23T14:00:55.605Z,96280.56
2023-02-23T14:03:27.048Z,96282.16
2023-02-23T14:06:00.315Z,96281.16
2023-02-23T14:08:34.650Z,96286.81
2023-02-23T14:11:03.172Z,96282.97
2023-02-23T14:13:34.606Z,96288.19
2023-02-23T14:16:19.841Z,96279.75
2023-02-23T14:19:12.094Z,96283.34
2023-02-23T14:21:46.736Z,96284.97
2023-02-23T14:24:18.609Z,96278.13
2023-02-23T14:27:03.337Z,96274.50
2023-02-23T14:29:40.894Z,96271.09
2023-02-23T14:32:31.213Z,96265.63
2023-02-23T14:35:01.410Z,96272.09
2023-02-23T14:37:32.881Z,96262.03
2023-02-23T14:40:12.673Z,96262.81
2023-02-23T14:42:41.408Z,96257.16
2023-02-23T14:45:20.538Z,96265.25
2023-02-23T14:47:51.627Z,96260.00
2023-02-23T14:50:27.137Z,96260.81
2023-02-23T14:52:56.617Z,96254.56
2023-02-23T14:55:29.204Z,96260.63
2023-02-23T14:57:58.086Z,96251.13
2023-02-23T15:00:32.388Z,96258.78
2023-02-23T15:03:02.272Z,96253.94
2023-02-23T15:05:32.190Z,96248.91
2023-02-23T15:08:01.973Z,96259.78
2023-02-23T15:10:33.923Z,96266.44
2023-02-23T15:13:02.437Z,96265.28
2023-02-23T15:15:31.723Z,96270.50
2023-02-23T15:18:04.020Z,96263.84
2023-02-23T15:23:03.696Z,96260.06
2023-02-23T15:25:37.039Z,96263.84
2023-02-23T15:28:25.393Z,96261.25
2023-02-23T15:30:56.557Z,96266.91
2023-02-23T15:33:28.589Z,96264.47
2023-02-23T15:36:01.498Z,96266.50
2023-02-23T15:38:43.850Z,96274.56
2023-02-23T15:41:16.318Z,96277.38
2023-02-23T15:43:44.444Z,96276.38
2023-02-23T15:46:24.208Z,96275.41
2023-02-23T15:48:54.355Z,96277.41
2023-02-23T15:51:27.714Z,96280.81
2023-02-23T15:53:55.820Z,96278.22
2023-02-23T15:56:27.540Z,96280.63
2023-02-23T15:58:58.444Z,96279.00
2023-02-23T16:01:30.351Z,96287.47
2023-02-23T16:04:01.829Z,96279.03
2023-02-23T16:06:34.188Z,96283.88
2023-02-23T16:09:19.909Z,96284.84
2023-02-23T16:11:51.811Z,96284.84
2023-02-23T16:14:21.337Z,96288.06
2023-02-23T16:17:08.370Z,96289.47
2023-02-23T16:19:41.066Z,96284.66
2023-02-23T16:22:19.549Z,96292.72
2023-02-23T16:24:54.543Z,96295.75
2023-02-23T16:27:22.296Z,96302.38
2023-02-23T16:30:00.545Z,96301.59
2023-02-23T16:32:37.696Z,96297.53
2023-02-23T16:35:16.038Z,96297.97
2023-02-23T16:38:02.961Z,96299.38
2023-02-23T16:40:30.809Z,96293.94
2023-02-23T16:42:59.624Z,96300.38
2023-02-23T16:45:29.693Z,96295.53
2023-02-23T16:48:03.224Z,96299.56
2023-02-23T16:50:33.557Z,96294.91
2023-02-23T16:53:03.505Z,96296.31
2023-02-23T16:55:33.177Z,96295.53
2023-02-23T16:58:03.953Z,96292.72
2023-02-23T17:00:33.359Z,96300.34
2023-02-23T17:03:06.219Z,96301.16
2023-02-23T17:05:34.263Z,96300.56
2023-02-23T17:08:01.915Z,96298.13
2023-02-23T17:10:35.363Z,96297.31
2023-02-23T17:13:05.701Z,96293.91
2023-02-23T17:15:36.245Z,96295.50
2023-02-23T17:18:06.575Z,96293.09
2023-02-23T17:20:34.745Z,96296.28
2023-02-23T17:23:03.359Z,96305.53
2023-02-23T17:25:31.551Z,96300.31
2023-02-23T17:28:05.606Z,96306.75
2023-02-23T17:30:33.722Z,96302.91
2023-02-23T17:33:02.719Z,96309.75
2023-02-23T17:35:37.239Z,96309.16
2023-02-23T17:38:06.931Z,96299.69
2023-02-23T17:40:36.441Z,96303.50
2023-02-23T17:43:06.333Z,96302.09
2023-02-23T17:45:33.950Z,96303.91
2023-02-23T17:48:01.651Z,96298.84
2023-02-23T17:50:31.690Z,96303.44
2023-02-23T17:52:59.263Z,96297.22
2023-02-23T17:55:27.028Z,96308.06
2023-02-23T17:57:54.683Z,96298.63
2023-02-23T18:00:22.523Z,96301.00
2023-02-23T18:02:50.247Z,96300.81
2023-02-23T18:05:18.010Z,96302.63
2023-02-23T18:07:48.650Z,96300.41
2023-02-23T18:10:17.700Z,96302.44
2023-02-23T18:12:45.531Z,96307.88
2023-02-23T18:15:13.380Z,96307.88
2023-02-23T18:17:40.976Z,96316.69
2023-02-23T18:20:09.693Z,96313.06
2023-02-23T18:22:37.296Z,96315.44
2023-02-23T18:25:07.410Z,96315.84
2023-02-23T18:27:35.058Z,96318.63
2023-02-23T18:30:02.830Z,96313.84
2023-02-23T18:32:30.587Z,96316.47
2023-02-23T18:34:58.261Z,96321.06
2023-02-23T18:37:28.760Z,96317.66
2023-02-23T18:39:57.755Z,96311.81
2023-02-23T18:42:27.150Z,96319.03
2023-02-23T18:44:54.705Z,96309.97
2023-02-23T18:47:22.248Z,96304.91
2023-02-23T18:49:49.973Z,96303.69
2023-02-23T18:52:17.497Z,96303.09
2023-02-23T18:54:45.588Z,96300.50
2023-02-23T18:57:13.183Z,96304.09
2023-02-23T18:59:42.197Z,96301.25
2023-02-23T19:02:10.940Z,96302.81
2023-02-23T19:04:39.234Z,96297.16
2023-02-23T19:07:06.832Z,96304.78
2023-02-23T19:09:34.336Z,96299.16
2023-02-23T19:12:02.919Z,96305.56
2023-02-23T19:14:48.457Z,96305.31
2023-02-23T19:17:18.377Z,96309.75
2023-02-23T19:19:45.947Z,96309.53
2023-02-23T19:22:13.602Z,96305.94
2023-02-23T19:24:41.882Z,96305.50
2023-02-23T19:27:10.000Z,96307.91
2023-02-23T19:29:37.700Z,96309.47
2023-02-23T19:32:05.899Z,96313.84
2023-02-23T19:34:43.503Z,96308.38
2023-02-23T19:37:11.145Z,96305.34
2023-02-23T19:39:39.160Z,96303.75
2023-02-23T19:42:07.229Z,96308.13
2023-02-23T19:44:34.956Z,96307.91
2023-02-23T19:47:02.500Z,96301.44
2023-02-23T19:49:30.045Z,96297.59
2023-02-23T19:51:58.946Z,96298.78
2023-02-23T19:54:33.951Z,96304.41
2023-02-23T19:57:01.576Z,96298.75
2023-02-23T19:59:29.102Z,96300.91
2023-02-23T20:01:56.678Z,96291.88
2023-02-23T20:04:24.265Z,96297.63
2023-02-23T20:06:52.415Z,96289.56
2023-02-23T20:09:21.286Z,96296.16
2023-02-23T20:11:49.144Z,96295.53
2023-02-23T20:14:17.151Z,96298.13
2023-02-23T20:16:46.971Z,96295.75
2023-02-23T20:19:14.548Z,96291.66
2023-02-23T20:21:43.410Z,96291.25
2023-02-23T20:24:12.747Z,96301.28
2023-02-23T20:26:41.690Z,96299.16
2023-02-23T20:29:12.583Z,96303.00
2023-02-23T20:31:50.430Z,96294.78
2023-02-23T20:34:22.109Z,96302.25
2023-02-23T20:36:51.056Z,96305.84
2023-02-23T20:39:19.989Z,96308.63
2023-02-23T20:41:53.421Z,96310.06
2023-02-23T20:44:22.962Z,96298.81
2023-02-23T20:46:51.117Z,96307.66
2023-02-23T20:49:19.332Z,96304.25
2023-02-23T20:51:48.550Z,96308.63
2023-02-23T20:54:16.848Z,96304.59
2023-02-23T20:56:45.200Z,96301.38
2023-02-23T20:59:15.573Z,96297.78
2023-02-23T21:01:45.300Z,96299.78
2023-02-23T21:04:13.827Z,96297.53
2023-02-23T21:06:41.522Z,96302.06
2023-02-23T21:09:12.813Z,96295.66
2023-02-23T21:11:40.451Z,96292.44
2023-02-23T21:14:08.432Z,96289.19
2023-02-23T21:16:41.653Z,96294.41
2023-02-23T21:19:09.226Z,96286.78
2023-02-23T21:21:39.544Z,96286.53
2023-02-23T21:24:07.675Z,96283.09
2023-02-23T21:26:35.401Z,96285.91
2023-02-23T21:29:04.040Z,96286.09
2023-02-23T21:31:32.134Z,96281.06
2023-02-23T21:34:05.439Z,96287.28
2023-02-23T21:36:33.134Z,96283.88
2023-02-23T21:39:01.059Z,96279.63
2023-02-23T21:41:33.681Z,96284.84
2023-02-23T21:44:01.947Z,96283.41
2023-02-23T21:46:29.659Z,96279.38
2023-02-23T21:48:57.259Z,96274.19
2023-02-23T21:51:26.980Z,96269.59
2023-02-23T21:53:58.408Z,96268.59
2023-02-23T21:56:25.944Z,96266.78
2023-02-23T21:58:55.803Z,96267.78
2023-02-23T22:01:26.667Z,96268.16
2023-02-23T22:03:54.977Z,96267.72
2023-02-23T22:06:25.290Z,96264.50
2023-02-23T22:08:54.947Z,96268.91
2023-02-23T22:11:24.762Z,96264.66
2023-02-23T22:13:58.733Z,96271.50
2023-02-23T22:16:27.942Z,96264.50
2023-02-23T22:18:55.562Z,96268.91
2023-02-23T22:21:23.507Z,96268.47
2023-02-23T22:23:53.347Z,96261.66
2023-02-23T22:26:22.272Z,96256.44
2023-02-23T22:28:49.752Z,96260.00
2023-02-23T22:31:17.352Z,96256.78
2023-02-23T22:33:45.321Z,96255.59
2023-02-23T22:36:14.671Z,96260.81
2023-02-23T22:38:42.969Z,96260.63
2023-02-23T22:41:11.526Z,96262.88
2023-02-23T22:43:41.191Z,96260.53
2023-02-23T22:46:09.424Z,96254.13
2023-02-23T22:48:38.134Z,96260.13
2023-02-23T22:51:07.780Z,96261.78
2023-02-23T22:53:35.298Z,96265.56
2023-02-23T22:56:03.898Z,96264.09
2023-02-23T22:58:33.152Z,96252.09
2023-02-23T23:01:06.319Z,96235.66
2023-02-23T23:03:36.212Z,96242.03
2023-02-23T23:06:05.396Z,96252.66
2023-02-23T23:08:36.458Z,96243.41
2023-02-23T23:11:09.279Z,96233.97
2023-02-23T23:13:40.340Z,96235.94
2023-02-23T23:16:16.735Z,96237.75
2023-02-23T23:18:54.354Z,96239.13
2023-02-23T23:21:24.454Z,96231.47
2023-02-23T23:23:54.110Z,96226.88
2023-02-23T23:26:23.289Z,96223.94
2023-02-23T23:28:52.575Z,96228.75
2023-02-23T23:31:27.966Z,96230.00
2023-02-23T23:33:59.815Z,96235.66
2023-02-23T23:36:29.813Z,96228.00
2023-02-23T23:38:57.744Z,96227.63
2023-02-23T23:41:26.960Z,96224.03
2023-02-23T23:43:57.645Z,96227.63
2023-02-23T23:46:28.238Z,96223.25
2023-02-23T23:48:57.922Z,96218.03
2023-02-23T23:51:28.258Z,96208.97
2023-02-23T23:53:55.931Z,96208.34
2023-02-23T23:56:23.428Z,96203.09
2023-02-23T23:58:52.428Z,96200.59
